sensor_id;sensor_type;location;lat;lon;timestamp;pressure;altitude;pressure_sealevel;temperature;humidity
7200;BME280;3641;49.082;8.200;2022-09-09T00:02:05;99909.25;;;15.67;82.39
7200;BME280;3641;49.082;8.200;2022-09-09T00:04:37;99909.09;;;15.99;81.29
7200;BME280;3641;49.082;8.200;2022-09-09T00:07:07;99903.50;;;16.06;81.79
7200;BME280;3641;49.082;8.200;2022-09-09T00:09:43;99905.66;;;16.04;82.14
7200;BME280;3641;49.082;8.200;2022-09-09T00:12:15;99903.69;;;16.23;79.91
7200;BME280;3641;49.082;8.200;2022-09-09T00:14:48;99908.56;;;16.21;79.56
7200;BME280;3641;49.082;8.200;2022-09-09T00:17:23;99914.66;;;15.74;83.99
7200;BME280;3641;49.082;8.200;2022-09-09T00:19:56;99908.16;;;15.31;86.99
7200;BME280;3641;49.082;8.200;2022-09-09T00:22:23;99897.78;;;15.52;83.64
7200;BME280;3641;49.082;8.200;2022-09-09T00:24:53;99898.38;;;15.72;81.91
7200;BME280;3641;49.082;8.200;2022-09-09T00:27:26;99902.00;;;15.91;83.32
7200;BME280;3641;49.082;8.200;2022-09-09T00:29:59;99894.81;;;15.72;82.66
7200;BME280;3641;49.082;8.200;2022-09-09T00:32:29;99897.94;;;15.38;86.71
7200;BME280;3641;49.082;8.200;2022-09-09T00:35:00;99907.78;;;15.28;87.05
7200;BME280;3641;49.082;8.200;2022-09-09T00:37:29;99919.59;;;15.10;87.79
7200;BME280;3641;49.082;8.200;2022-09-09T00:39:59;99914.41;;;14.95;89.10
7200;BME280;3641;49.082;8.200;2022-09-09T00:42:36;99914.09;;;15.28;86.57
7200;BME280;3641;49.082;8.200;2022-09-09T00:45:19;99925.63;;;15.18;
7200;BME280;3641;49.082;8.200;2022-09-09T00:47:51;99913.97;;;14.98;89.35
7200;BME280;3641;49.082;8.200;2022-09-09T00:50:31;99912.47;;;15.02;89.33
7200;BME280;3641;49.082;8.200;2022-09-09T00:53:19;99916.25;;;15.26;85.95
7200;BME280;3641;49.082;8.200;2022-09-09T00:55:55;99917.13;;;15.64;85.82
7200;BME280;3641;49.082;8.200;2022-09-09T00:58:25;99925.03;;;15.35;87.06
7200;BME280;3641;49.082;8.200;2022-09-09T01:00:56;99925.41;;;15.20;88.36
7200;BME280;3641;49.082;8.200;2022-09-09T01:03:30;99928.59;;;15.17;88.82
7200;BME280;3641;49.082;8.200;2022-09-09T01:06:02;99918.78;;;15.65;85.08
7200;BME280;3641;49.082;8.200;2022-09-09T01:08:41;99920.72;;;15.64;84.59
7200;BME280;3641;49.082;8.200;2022-09-09T01:11:16;99931.91;;;15.44;87.35
7200;BME280;3641;49.082;8.200;2022-09-09T01:13:49;99936.28;;;15.52;87.10
7200;BME280;3641;49.082;8.200;2022-09-09T01:16:19;99943.94;;;15.50;85.41
7200;BME280;3641;49.082;8.200;2022-09-09T01:18:48;99935.53;;;15.63;85.71
7200;BME280;3641;49.082;8.200;2022-09-09T01:21:22;99929.19;;;15.62;85.73
7200;BME280;3641;49.082;8.200;2022-09-09T01:24:05;99926.72;;;15.79;83.05
7200;BME280;3641;49.082;8.200;2022-09-09T01:26:37;99925.25;;;15.33;87.35
7200;BME280;3641;49.082;8.200;2022-09-09T01:29:07;99927.28;;;15.44;86.53
7200;BME280;3641;49.082;8.200;2022-09-09T01:31:37;99930.63;;;15.65;84.62
7200;BME280;3641;49.082;8.200;2022-09-09T01:34:10;99928.63;;;15.54;84.83
7200;BME280;3641;49.082;8.200;2022-09-09T01:36:40;99924.03;;;15.29;86.88
7200;BME280;3641;49.082;8.200;2022-09-09T01:39:08;99919.63;;;15.47;85.31
7200;BME280;3641;49.082;8.200;2022-09-09T01:41:37;99911.16;;;15.48;85.22
7200;BME280;3641;49.082;8.200;2022-09-09T01:44:04;99911.13;;;15.30;86.55
7200;BME280;3641;49.082;8.200;2022-09-09T01:46:31;99904.50;;;15.37;85.79
7200;BME280;3641;49.082;8.200;2022-09-09T01:48:58;99897.53;;;15.35;85.99
7200;BME280;3641;49.082;8.200;2022-09-09T01:51:26;99895.63;;;15.54;84.45
7200;BME280;3641;49.082;8.200;2022-09-09T01:53:53;99899.59;;;15.39;85.96
7200;BME280;3641;49.082;8.200;2022-09-09T01:56:31;99892.25;;;15.33;86.48
7200;BME280;3641;49.082;8.200;2022-09-09T01:59:10;99897.41;;;15.48;85.33
7200;BME280;3641;49.082;8.200;2022-09-09T02:01:55;99900.28;;;15.35;86.42
7200;BME280;3641;49.082;8.200;2022-09-09T02:04:36;99907.53;;;15.29;86.82
7200;BME280;3641;49.082;8.200;2022-09-09T02:07:07;99903.56;;;15.25;87.37
7200;BME280;3641;49.082;8.200;2022-09-09T02:09:36;99908.06;;;15.38;86.10
7200;BME280;3641;49.082;8.200;2022-09-09T02:12:08;99912.78;;;15.12;88.03
7200;BME280;3641;49.082;8.200;2022-09-09T02:14:41;99916.84;;;15.10;88.58
7200;BME280;3641;49.082;8.200;2022-09-09T02:17:10;99914.38;;;15.01;88.83
7200;BME280;3641;49.082;8.200;2022-09-09T02:19:39;99931.13;;;14.93;88.18
7200;BME280;3641;49.082;8.200;2022-09-09T02:22:09;99924.25;;;15.28;85.53
7200;BME280;3641;49.082;8.200;2022-09-09T02:24:38;99923.53;;;15.57;84.20
7200;BME280;3641;49.082;8.200;2022-09-09T02:27:06;99909.47;;;15.47;84.74
7200;BME280;3641;49.082;8.200;2022-09-09T02:29:36;99905.56;;;15.55;83.01
7200;BME280;3641;49.082;8.200;2022-09-09T02:32:07;99905.25;;;15.63;82.63
7200;BME280;3641;49.082;8.200;2022-09-09T02:34:37;99900.50;;;15.33;85.58
7200;BME280;3641;49.082;8.200;2022-09-09T02:37:06;99904.41;;;15.25;85.70
7200;BME280;3641;49.082;8.200;2022-09-09T02:39:34;99902.03;;;15.29;85.98
7200;BME280;3641;49.082;8.200;2022-09-09T02:42:00;99905.19;;;14.89;89.35
7200;BME280;3641;49.082;8.200;2022-09-09T02:44:29;99904.50;;;14.94;89.66
7200;BME280;3641;49.082;8.200;2022-09-09T02:47:16;99900.34;;;15.28;85.52
7200;BME280;3641;49.082;8.200;2022-09-09T02:49:54;99890.91;;;14.99;88.77
7200;BME280;3641;49.082;8.200;2022-09-09T02:52:29;99890.25;;;14.78;90.44
7200;BME280;3641;49.082;8.200;2022-09-09T02:55:06;99907.13;;;14.82;90.28
7200;BME280;3641;49.082;8.200;2022-09-09T02:57:34;99900.84;;;14.75;90.96
7200;BME280;3641;49.082;8.200;2022-09-09T03:00:03;99900.28;;;14.66;91.53
7200;BME280;3641;49.082;8.200;2022-09-09T03:02:31;99902.38;;;14.96;90.03
7200;BME280;3641;49.082;8.200;2022-09-09T03:04:58;99905.53;;;15.18;86.45
7200;BME280;3641;49.082;8.200;2022-09-09T03:07:24;99896.72;;;15.09;87.96
7200;BME280;3641;49.082;8.200;2022-09-09T03:09:52;99901.13;;;14.92;89.81
7200;BME280;3641;49.082;8.200;2022-09-09T03:12:20;99897.69;;;15.40;84.46
7200;BME280;3641;49.082;8.200;2022-09-09T03:14:46;99903.03;;;15.53;83.06
7200;BME280;3641;49.082;8.200;2022-09-09T03:17:13;99908.41;;;15.48;84.78
7200;BME280;3641;49.082;8.200;2022-09-09T03:19:40;99910.91;;;15.31;87.19
7200;BME280;3641;49.082;8.200;2022-09-09T03:22:09;99905.94;;;15.58;83.33
7200;BME280;3641;49.082;8.200;2022-09-09T03:24:35;99907.94;;;15.70;82.67
7200;BME280;3641;49.082;8.200;2022-09-09T03:27:02;99901.88;;;15.42;86.77
7200;BME280;3641;49.082;8.200;2022-09-09T03:29:29;99911.81;;;15.25;87.27
7200;BME280;3641;49.082;8.200;2022-09-09T03:31:55;99911.91;;;15.55;83.79
7200;BME280;3641;49.082;8.200;2022-09-09T03:34:21;99910.84;;;15.56;83.98
7200;BME280;3641;49.082;8.200;2022-09-09T03:36:49;99907.03;;;15.57;84.30
7200;BME280;3641;49.082;8.200;2022-09-09T03:39:16;99908.56;;;15.72;82.92
7200;BME280;3641;49.082;8.200;2022-09-09T03:41:42;99906.34;;;15.62;83.81
7200;BME280;3641;49.082;8.200;2022-09-09T03:44:11;99900.63;;;15.82;83.81
7200;BME280;3641;49.082;8.200;2022-09-09T03:46:37;99899.38;;;15.22;86.31
7200;BME280;3641;49.082;8.200;2022-09-09T03:49:04;99901.75;;;15.37;85.55
7200;BME280;3641;49.082;8.200;2022-09-09T03:51:30;99910.81;;;15.38;86.38
7200;BME280;3641;49.082;8.200;2022-09-09T03:54:03;99900.84;;;15.62;83.10
7200;BME280;3641;49.082;8.200;2022-09-09T03:56:30;99898.16;;;15.74;82.48
7200;BME280;3641;49.082;8.200;2022-09-09T03:58:56;99907.94;;;15.51;85.59
7200;BME280;3641;49.082;8.200;2022-09-09T04:01:23;99911.31;;;15.72;82.43
7200;BME280;3641;49.082;8.200;2022-09-09T04:03:49;99912.75;;;15.56;84.91
7200;BME280;3641;49.082;8.200;2022-09-09T04:06:18;99915.34;;;15.32;86.28
7200;BME280;3641;49.082;8.200;2022-09-09T04:08:46;99916.25;;;15.26;86.36
7200;BME280;3641;49.082;8.200;2022-09-09T04:11:15;99914.50;;;15.32;86.04
7200;BME280;3641;49.082;8.200;2022-09-09T04:13:42;99915.88;;;15.59;83.55
7200;BME280;3641;49.082;8.200;2022-09-09T04:16:10;99930.13;;;15.13;86.94
7200;BME280;3641;49.082;8.200;2022-09-09T04:18:38;99928.94;;;15.02;87.05
7200;BME280;3641;49.082;8.200;2022-09-09T04:21:05;99933.66;;;15.20;86.18
7200;BME280;3641;49.082;8.200;2022-09-09T04:23:33;99927.16;;;15.33;85.74
7200;BME280;3641;49.082;8.200;2022-09-09T04:26:01;99924.44;;;15.51;83.50
7200;BME280;3641;49.082;8.200;2022-09-09T04:28:31;99924.59;;;15.56;84.73
7200;BME280;3641;49.082;8.200;2022-09-09T04:31:04;99927.09;;;15.39;85.48
7200;BME280;3641;49.082;8.200;2022-09-09T04:33:30;99927.00;;;15.28;86.31
7200;BME280;3641;49.082;8.200;2022-09-09T04:35:57;99929.94;;;15.07;87.88
7200;BME280;3641;49.082;8.200;2022-09-09T04:38:24;99927.63;;;15.04;87.61
7200;BME280;3641;49.082;8.200;2022-09-09T04:40:51;99936.00;;;15.16;86.55
7200;BME280;3641;49.082;8.200;2022-09-09T04:43:19;99936.41;;;14.69;89.33
7200;BME280;3641;49.082;8.200;2022-09-09T04:45:48;99938.50;;;14.67;89.91
7200;BME280;3641;49.082;8.200;2022-09-09T04:48:16;99939.47;;;14.48;90.81
7200;BME280;3641;49.082;8.200;2022-09-09T04:50:43;99935.63;;;14.87;87.26
7200;BME280;3641;49.082;8.200;2022-09-09T04:53:09;99941.28;;;14.93;86.32
7200;BME280;3641;49.082;8.200;2022-09-09T04:55:36;99944.16;;;14.79;88.50
7200;BME280;3641;49.082;8.200;2022-09-09T04:58:03;99950.38;;;14.61;90.25
7200;BME280;3641;49.082;8.200;2022-09-09T05:00:30;99944.09;;;14.86;88.12
7200;BME280;3641;49.082;8.200;2022-09-09T05:02:58;99943.66;;;14.89;87.63
7200;BME280;3641;49.082;8.200;2022-09-09T05:05:24;99942.69;;;14.77;88.86
7200;BME280;3641;49.082;8.200;2022-09-09T05:07:51;99941.66;;;14.96;86.32
7200;BME280;3641;49.082;8.200;2022-09-09T05:10:18;99942.63;;;15.08;85.79
7200;BME280;3641;49.082;8.200;2022-09-09T05:12:52;99946.53;;;14.69;89.17
7200;BME280;3641;49.082;8.200;2022-09-09T05:15:18;99953.66;;;14.77;88.55
7200;BME280;3641;49.082;8.200;2022-09-09T05:17:46;99949.66;;;14.79;87.85
7200;BME280;3641;49.082;8.200;2022-09-09T05:20:14;99954.84;;;14.56;90.36
7200;BME280;3641;49.082;8.200;2022-09-09T05:22:40;99950.28;;;14.43;90.88
7200;BME280;3641;49.082;8.200;2022-09-09T05:25:07;99950.09;;;14.38;90.68
7200;BME280;3641;49.082;8.200;2022-09-09T05:27:34;99958.31;;;14.44;90.62
7200;BME280;3641;49.082;8.200;2022-09-09T05:30:00;99954.28;;;14.40;90.74
7200;BME280;3641;49.082;8.200;2022-09-09T05:32:29;99958.31;;;14.44;90.41
7200;BME280;3641;49.082;8.200;2022-09-09T05:34:59;99964.50;;;14.33;90.83
7200;BME280;3641;49.082;8.200;2022-09-09T05:37:28;99965.97;;;14.29;91.01
7200;BME280;3641;49.082;8.200;2022-09-09T05:39:55;99970.78;;;14.40;90.42
7200;BME280;3641;49.082;8.200;2022-09-09T05:42:21;99966.38;;;14.32;90.41
7200;BME280;3641;49.082;8.200;2022-09-09T05:44:48;99971.75;;;14.52;89.08
7200;BME280;3641;49.082;8.200;2022-09-09T05:47:16;99970.94;;;14.52;89.01
7200;BME280;3641;49.082;8.200;2022-09-09T05:49:42;99974.00;;;14.69;87.28
7200;BME280;3641;49.082;8.200;2022-09-09T05:52:09;99974.34;;;14.47;89.01
7200;BME280;3641;49.082;8.200;2022-09-09T05:54:36;99967.75;;;14.55;88.83
7200;BME280;3641;49.082;8.200;2022-09-09T05:57:04;99975.16;;;14.48;89.50
7200;BME280;3641;49.082;8.200;2022-09-09T05:59:31;99980.06;;;14.46;89.42
7200;BME280;3641;49.082;8.200;2022-09-09T06:01:57;99983.84;;;14.45;89.45
7200;BME280;3641;49.082;8.200;2022-09-09T06:04:24;99986.97;;;14.62;88.60
7200;BME280;3641;49.082;8.200;2022-09-09T06:06:50;99989.28;;;14.65;88.88
7200;BME280;3641;49.082;8.200;2022-09-09T06:09:17;99985.16;;;14.74;87.85
7200;BME280;3641;49.082;8.200;2022-09-09T06:11:45;99993.25;;;14.69;87.83
7200;BME280;3641;49.082;8.200;2022-09-09T06:14:12;99993.03;;;14.70;88.20
7200;BME280;3641;49.082;8.200;2022-09-09T06:16:38;99995.22;;;14.87;88.21
7200;BME280;3641;49.082;8.200;2022-09-09T06:19:07;99992.69;;;14.92;86.90
7200;BME280;3641;49.082;8.200;2022-09-09T06:21:34;99992.56;;;15.05;86.45
7200;BME280;3641;49.082;8.200;2022-09-09T06:24:02;99984.47;;;15.11;85.81
7200;BME280;3641;49.082;8.200;2022-09-09T06:26:30;99982.84;;;15.28;85.09
7200;BME280;3641;49.082;8.200;2022-09-09T06:28:59;99984.16;;;15.25;85.76
7200;BME280;3641;49.082;8.200;2022-09-09T06:31:30;99983.66;;;15.35;85.02
7200;BME280;3641;49.082;8.200;2022-09-09T06:33:57;99984.59;;;15.22;85.51
7200;BME280;3641;49.082;8.200;2022-09-09T06:36:26;99989.19;;;15.03;86.54
7200;BME280;3641;49.082;8.200;2022-09-09T06:38:53;99984.09;;;15.07;86.76
7200;BME280;3641;49.082;8.200;2022-09-09T06:41:22;99987.41;;;15.16;86.92
7200;BME280;3641;49.082;8.200;2022-09-09T06:43:50;99985.50;;;15.41;84.36
7200;BME280;3641;49.082;8.200;2022-09-09T06:46:19;99984.63;;;15.41;85.29
7200;BME280;3641;49.082;8.200;2022-09-09T06:48:47;99980.09;;;15.28;85.40
7200;BME280;3641;49.082;8.200;2022-09-09T06:51:15;99989.22;;;15.47;84.68
7200;BME280;3641;49.082;8.200;2022-09-09T06:53:44;99979.56;;;15.38;85.90
7200;BME280;3641;49.082;8.200;2022-09-09T06:56:20;99979.09;;;15.48;85.10
7200;BME280;3641;49.082;8.200;2022-09-09T06:58:47;99989.34;;;15.59;84.37
7200;BME280;3641;49.082;8.200;2022-09-09T07:01:15;99982.28;;;15.88;82.48
7200;BME280;3641;49.082;8.200;2022-09-09T07:03:45;99988.09;;;15.55;84.37
7200;BME280;3641;49.082;8.200;2022-09-09T07:06:14;99980.94;;;15.72;84.54
7200;BME280;3641;49.082;8.200;2022-09-09T07:08:42;99979.53;;;15.63;84.75
7200;BME280;3641;49.082;8.200;2022-09-09T07:11:08;99984.72;;;15.78;84.10
7200;BME280;3641;49.082;8.200;2022-09-09T07:13:36;99987.94;;;15.68;84.35
7200;BME280;3641;49.082;8.200;2022-09-09T07:16:04;99979.59;;;15.82;84.00
7200;BME280;3641;49.082;8.200;2022-09-09T07:18:30;99978.47;;;15.89;83.90
7200;BME280;3641;49.082;8.200;2022-09-09T07:20:58;99981.00;;;15.91;83.78
7200;BME280;3641;49.082;8.200;2022-09-09T07:23:25;99992.28;;;16.01;82.87
7200;BME280;3641;49.082;8.200;2022-09-09T07:25:53;99982.75;;;16.04;82.80
7200;BME280;3641;49.082;8.200;2022-09-09T07:28:20;99979.44;;;16.13;82.53
7200;BME280;3641;49.082;8.200;2022-09-09T07:30:53;99973.69;;;16.15;82.92
7200;BME280;3641;49.082;8.200;2022-09-09T07:33:19;99974.28;;;16.17;82.23
7200;BME280;3641;49.082;8.200;2022-09-09T07:35:46;99990.72;;;16.24;81.91
7200;BME280;3641;49.082;8.200;2022-09-09T07:38:14;99995.28;;;16.18;82.06
7200;BME280;3641;49.082;8.200;2022-09-09T07:40:44;99992.09;;;16.33;82.05
7200;BME280;3641;49.082;8.200;2022-09-09T07:43:10;99991.41;;;16.38;81.26
7200;BME280;3641;49.082;8.200;2022-09-09T07:45:37;100004.50;;;16.42;81.13
7200;BME280;3641;49.082;8.200;2022-09-09T07:48:05;99993.47;;;16.42;81.24
7200;BME280;3641;49.082;8.200;2022-09-09T07:50:32;100005.69;;;16.46;80.80
7200;BME280;3641;49.082;8.200;2022-09-09T07:52:58;100002.31;;;16.63;80.83
7200;BME280;3641;49.082;8.200;2022-09-09T07:55:26;100012.22;;;16.64;80.67
7200;BME280;3641;49.082;8.200;2022-09-09T07:57:53;100024.69;;;16.55;81.53
7200;BME280;3641;49.082;8.200;2022-09-09T08:00:21;100045.94;;;16.47;83.20
7200;BME280;3641;49.082;8.200;2022-09-09T08:02:49;100042.19;;;16.42;86.38
7200;BME280;3641;49.082;8.200;2022-09-09T08:05:15;100015.03;;;16.45;85.29
7200;BME280;3641;49.082;8.200;2022-09-09T08:07:43;100019.66;;;16.14;88.23
7200;BME280;3641;49.082;8.200;2022-09-09T08:10:09;100025.31;;;15.83;91.49
7200;BME280;3641;49.082;8.200;2022-09-09T08:12:37;100020.88;;;15.82;91.72
7200;BME280;3641;49.082;8.200;2022-09-09T08:15:05;100008.88;;;15.94;91.73
7200;BME280;3641;49.082;8.200;2022-09-09T08:17:37;100012.19;;;15.85;91.24
7200;BME280;3641;49.082;8.200;2022-09-09T08:20:05;100017.63;;;15.66;92.65
7200;BME280;3641;49.082;8.200;2022-09-09T08:22:31;100023.72;;;15.68;92.79
7200;BME280;3641;49.082;8.200;2022-09-09T08:24:58;100023.28;;;15.71;93.16
7200;BME280;3641;49.082;8.200;2022-09-09T08:27:24;100021.50;;;15.84;93.72
7200;BME280;3641;49.082;8.200;2022-09-09T08:29:52;100018.91;;;16.07;90.38
7200;BME280;3641;49.082;8.200;2022-09-09T08:32:18;100033.06;;;15.92;94.50
7200;BME280;3641;49.082;8.200;2022-09-09T08:34:45;100031.13;;;15.93;93.60
7200;BME280;3641;49.082;8.200;2022-09-09T08:37:12;100025.16;;;16.14;92.50
7200;BME280;3641;49.082;8.200;2022-09-09T08:39:39;100035.88;;;16.23;92.19
7200;BME280;3641;49.082;8.200;2022-09-09T08:42:18;100025.53;;;16.37;91.32
7200;BME280;3641;49.082;8.200;2022-09-09T08:45:00;100025.41;;;16.62;90.06
7200;BME280;3641;49.082;8.200;2022-09-09T08:47:41;100019.19;;;16.66;89.71
7200;BME280;3641;49.082;8.200;2022-09-09T08:50:18;100024.28;;;16.51;86.81
7200;BME280;3641;49.082;8.200;2022-09-09T08:52:51;100035.59;;;16.61;89.35
7200;BME280;3641;49.082;8.200;2022-09-09T08:55:24;100040.50;;;16.89;87.33
7200;BME280;3641;49.082;8.200;2022-09-09T08:57:54;100027.84;;;17.00;88.52
7200;BME280;3641;49.082;8.200;2022-09-09T09:00:29;100026.06;;;17.06;88.13
7200;BME280;3641;49.082;8.200;2022-09-09T09:03:06;100035.53;;;16.98;85.87
7200;BME280;3641;49.082;8.200;2022-09-09T09:05:37;100033.47;;;16.94;85.18
7200;BME280;3641;49.082;8.200;2022-09-09T09:08:17;100035.41;;;17.05;85.63
7200;BME280;3641;49.082;8.200;2022-09-09T09:10:49;100039.53;;;17.26;84.72
7200;BME280;3641;49.082;8.200;2022-09-09T09:13:18;100029.34;;;17.50;84.99
7200;BME280;3641;49.082;8.200;2022-09-09T09:15:51;100034.31;;;17.60;83.01
7200;BME280;3641;49.082;8.200;2022-09-09T09:18:19;100041.50;;;17.49;81.93
7200;BME280;3641;49.082;8.200;2022-09-09T09:20:50;100037.91;;;17.60;82.97
7200;BME280;3641;49.082;8.200;2022-09-09T09:23:22;100037.31;;;17.70;82.55
7200;BME280;3641;49.082;8.200;2022-09-09T09:25:50;100039.94;;;17.65;82.57
7200;BME280;3641;49.082;8.200;2022-09-09T09:28:21;100047.97;;;17.43;84.94
7200;BME280;3641;49.082;8.200;2022-09-09T09:30:54;100027.44;;;17.39;85.76
7200;BME280;3641;49.082;8.200;2022-09-09T09:33:27;100043.50;;;17.30;86.23
7200;BME280;3641;49.082;8.200;2022-09-09T09:35:57;100035.00;;;17.43;85.77
7200;BME280;3641;49.082;8.200;2022-09-09T09:38:26;100026.84;;;17.37;87.04
7200;BME280;3641;49.082;8.200;2022-09-09T09:40:55;100034.72;;;17.21;89.08
7200;BME280;3641;49.082;8.200;2022-09-09T09:43:25;100028.13;;;17.11;88.01
7200;BME280;3641;49.082;8.200;2022-09-09T09:45:54;100040.06;;;16.93;90.75
7200;BME280;3641;49.082;8.200;2022-09-09T09:48:23;100046.09;;;17.01;92.37
7200;BME280;3641;49.082;8.200;2022-09-09T09:50:52;100047.28;;;17.05;93.14
7200;BME280;3641;49.082;8.200;2022-09-09T09:53:23;100042.63;;;17.18;91.43
7200;BME280;3641;49.082;8.200;2022-09-09T09:55:54;100040.16;;;17.28;92.98
7200;BME280;3641;49.082;8.200;2022-09-09T09:58:21;100033.81;;;17.51;88.42
7200;BME280;3641;49.082;8.200;2022-09-09T10:00:48;100030.47;;;17.49;90.44
7200;BME280;3641;49.082;8.200;2022-09-09T10:03:26;100039.91;;;17.30;87.83
7200;BME280;3641;49.082;8.200;2022-09-09T10:05:53;100040.75;;;17.30;87.96
7200;BME280;3641;49.082;8.200;2022-09-09T10:08:21;100030.53;;;17.19;86.95
7200;BME280;3641;49.082;8.200;2022-09-09T10:11:12;100037.00;;;17.13;88.60
7200;BME280;3641;49.082;8.200;2022-09-09T10:13:48;100037.59;;;17.15;89.03
7200;BME280;3641;49.082;8.200;2022-09-09T10:16:27;100030.13;;;17.03;87.13
7200;BME280;3641;49.082;8.200;2022-09-09T10:19:00;100023.91;;;17.08;87.27
7200;BME280;3641;49.082;8.200;2022-09-09T10:21:43;100031.72;;;17.11;88.89
7200;BME280;3641;49.082;8.200;2022-09-09T10:24:28;100013.94;;;17.07;88.72
7200;BME280;3641;49.082;8.200;2022-09-09T10:27:01;100013.00;;;17.13;87.54
7200;BME280;3641;49.082;8.200;2022-09-09T10:29:44;100008.38;;;16.83;85.95
7200;BME280;3641;49.082;8.200;2022-09-09T10:32:28;100009.19;;;16.84;85.67
7200;BME280;3641;49.082;8.200;2022-09-09T10:35:04;100012.16;;;17.01;87.22
7200;BME280;3641;49.082;8.200;2022-09-09T10:37:43;100001.28;;;17.41;85.73
7200;BME280;3641;49.082;8.200;2022-09-09T10:40:21;99995.66;;;17.36;86.14
7200;BME280;3641;49.082;8.200;2022-09-09T10:42:51;100001.03;;;17.55;84.84
7200;BME280;3641;49.082;8.200;2022-09-09T10:45:21;100001.03;;;18.02;84.31
7200;BME280;3641;49.082;8.200;2022-09-09T10:48:03;99995.31;;;18.32;82.61
7200;BME280;3641;49.082;8.200;2022-09-09T10:50:48;99993.22;;;18.51;82.15
7200;BME280;3641;49.082;8.200;2022-09-09T10:53:23;99992.91;;;18.65;79.55
7200;BME280;3641;49.082;8.200;2022-09-09T10:55:56;99995.34;;;18.90;82.86
7200;BME280;3641;49.082;8.200;2022-09-09T10:58:32;99984.88;;;19.09;79.20
7200;BME280;3641;49.082;8.200;2022-09-09T11:01:08;99987.47;;;19.33;78.32
7200;BME280;3641;49.082;8.200;2022-09-09T11:03:38;99984.78;;;19.55;74.78
7200;BME280;3641;49.082;8.200;2022-09-09T11:06:12;99984.97;;;19.70;77.52
7200;BME280;3641;49.082;8.200;2022-09-09T11:08:40;99976.94;;;19.86;75.43
7200;BME280;3641;49.082;8.200;2022-09-09T11:11:12;99974.59;;;19.77;75.75
7200;BME280;3641;49.082;8.200;2022-09-09T11:13:45;99966.75;;;20.13;68.51
7200;BME280;3641;49.082;8.200;2022-09-09T11:16:22;99977.91;;;20.19;66.29
7200;BME280;3641;49.082;8.200;2022-09-09T11:18:56;99979.31;;;19.99;63.83
7200;BME280;3641;49.082;8.200;2022-09-09T11:21:28;99971.06;;;19.82;66.35
7200;BME280;3641;49.082;8.200;2022-09-09T11:24:00;99968.75;;;19.57;65.46
7200;BME280;3641;49.082;8.200;2022-09-09T11:26:32;99967.75;;;19.46;66.17
7200;BME280;3641;49.082;8.200;2022-09-09T11:29:16;99963.47;;;19.55;66.23
7200;BME280;3641;49.082;8.200;2022-09-09T11:31:57;99973.53;;;19.45;67.17
7200;BME280;3641;49.082;8.200;2022-09-09T11:34:39;99974.66;;;19.27;66.15
7200;BME280;3641;49.082;8.200;2022-09-09T11:40:14;99973.56;;;19.11;66.66
7200;BME280;3641;49.082;8.200;2022-09-09T11:42:42;99972.63;;;19.05;66.01
7200;BME280;3641;49.082;8.200;2022-09-09T11:45:11;99971.63;;;18.94;64.97
7200;BME280;3641;49.082;8.200;2022-09-09T11:47:38;99972.75;;;18.81;66.18
7200;BME280;3641;49.082;8.200;2022-09-09T11:50:28;99974.19;;;18.84;68.82
7200;BME280;3641;49.082;8.200;2022-09-09T11:53:06;99973.66;;;18.70;70.88
7200;BME280;3641;49.082;8.200;2022-09-09T11:55:42;99973.66;;;18.70;72.74
7200;BME280;3641;49.082;8.200;2022-09-09T11:58:16;99969.28;;;18.57;72.65
7200;BME280;3641;49.082;8.200;2022-09-09T12:00:44;99990.13;;;18.36;75.19
7200;BME280;3641;49.082;8.200;2022-09-09T12:03:38;99999.06;;;18.26;76.99
7200;BME280;3641;49.082;8.200;2022-09-09T12:06:13;100010.53;;;17.94;78.50
7200;BME280;3641;49.082;8.200;2022-09-09T12:08:46;100018.94;;;17.52;85.99
7200;BME280;3641;49.082;8.200;2022-09-09T12:11:24;99975.38;;;16.77;85.25
7200;BME280;3641;49.082;8.200;2022-09-09T12:13:55;99962.28;;;17.50;84.17
7200;BME280;3641;49.082;8.200;2022-09-09T12:16:30;99960.25;;;17.92;80.79
7200;BME280;3641;49.082;8.200;2022-09-09T12:19:04;99961.09;;;18.22;78.98
7200;BME280;3641;49.082;8.200;2022-09-09T12:21:36;99955.31;;;18.35;79.23
7200;BME280;3641;49.082;8.200;2022-09-09T12:24:09;99956.13;;;18.64;80.50
7200;BME280;3641;49.082;8.200;2022-09-09T12:26:39;99961.16;;;18.67;79.25
7200;BME280;3641;49.082;8.200;2022-09-09T12:29:19;99959.06;;;18.75;79.44
7200;BME280;3641;49.082;8.200;2022-09-09T12:31:53;99966.19;;;18.70;78.18
7200;BME280;3641;49.082;8.200;2022-09-09T12:34:32;99976.19;;;18.72;79.97
7200;BME280;3641;49.082;8.200;2022-09-09T12:37:04;99979.88;;;18.48;81.83
7200;BME280;3641;49.082;8.200;2022-09-09T12:39:40;99976.28;;;18.48;81.34
7200;BME280;3641;49.082;8.200;2022-09-09T12:42:16;99993.72;;;17.96;81.31
7200;BME280;3641;49.082;8.200;2022-09-09T12:44:51;100032.72;;;18.11;82.13
7200;BME280;3641;49.082;8.200;2022-09-09T12:47:19;100046.91;;;18.15;82.75
7200;BME280;3641;49.082;8.200;2022-09-09T12:49:47;100041.94;;;17.22;84.37
7200;BME280;3641;49.082;8.200;2022-09-09T12:52:19;99989.63;;;16.74;83.94
7200;BME280;3641;49.082;8.200;2022-09-09T12:54:50;100013.53;;;16.31;79.85
7200;BME280;3641;49.082;8.200;2022-09-09T12:57:19;99995.81;;;16.08;83.72
7200;BME280;3641;49.082;8.200;2022-09-09T12:59:46;99993.13;;;16.20;82.04
7200;BME280;3641;49.082;8.200;2022-09-09T13:02:21;99995.47;;;16.35;82.92
7200;BME280;3641;49.082;8.200;2022-09-09T13:04:48;99981.50;;;16.18;83.54
7200;BME280;3641;49.082;8.200;2022-09-09T13:07:16;99977.88;;;16.36;81.28
7200;BME280;3641;49.082;8.200;2022-09-09T13:09:43;99960.91;;;16.51;84.17
7200;BME280;3641;49.082;8.200;2022-09-09T13:12:15;99961.34;;;16.36;84.59
7200;BME280;3641;49.082;8.200;2022-09-09T13:14:44;99966.31;;;16.58;85.93
7200;BME280;3641;49.082;8.200;2022-09-09T13:17:19;99966.31;;;16.88;84.24
7200;BME280;3641;49.082;8.200;2022-09-09T13:19:47;99959.72;;;16.89;85.46
7200;BME280;3641;49.082;8.200;2022-09-09T13:22:21;99955.44;;;17.40;83.98
7200;BME280;3641;49.082;8.200;2022-09-09T13:24:58;99943.00;;;17.38;84.26
7200;BME280;3641;49.082;8.200;2022-09-09T13:27:30;99938.25;;;17.86;80.83
7200;BME280;3641;49.082;8.200;2022-09-09T13:29:57;99927.91;;;18.05;79.67
7200;BME280;3641;49.082;8.200;2022-09-09T13:32:25;99925.56;;;18.25;81.74
7200;BME280;3641;49.082;8.200;2022-09-09T13:34:54;99931.97;;;18.43;81.41
7200;BME280;3641;49.082;8.200;2022-09-09T13:37:24;99935.91;;;18.47;79.85
7200;BME280;3641;49.082;8.200;2022-09-09T13:39:53;99926.38;;;18.55;78.96
7200;BME280;3641;49.082;8.200;2022-09-09T13:42:24;99920.59;;;18.56;79.67